createdAt,value
2022-08-16T00:03:03.219Z,3.00
2022-08-16T00:05:48.278Z,2.73
2022-08-16T00:08:36.844Z,3.10
2022-08-16T00:12:00.286Z,3.15
2022-08-16T00:15:11.402Z,2.70
2022-08-16T00:18:22.090Z,2.67
2022-08-16T00:21:32.832Z,2.40
2022-08-16T00:27:41.861Z,2.50
2022-08-16T00:31:04.524Z,2.83
2022-08-16T00:34:43.392Z,3.47
2022-08-16T00:38:01.458Z,2.60
2022-08-16T00:51:40.952Z,2.47
2022-08-16T01:09:12.932Z,2.20
2022-08-16T01:12:02.333Z,2.00
2022-08-16T01:18:40.819Z,2.20
2022-08-16T01:22:48.221Z,1.70
2022-08-16T02:07:17.836Z,1.47
2022-08-16T02:26:34.476Z,1.77
2022-08-16T02:36:00.530Z,1.90
2022-08-16T02:39:16.972Z,2.40
2022-08-16T02:42:53.978Z,2.47
2022-08-16T02:45:52.632Z,2.37
2022-08-16T02:57:12.351Z,1.60
2022-08-16T03:02:47.203Z,1.57
2022-08-16T03:09:04.878Z,2.73
2022-08-16T03:12:18.221Z,2.60
2022-08-16T03:19:25.637Z,3.53
2022-08-16T03:22:56.565Z,3.73
2022-08-16T03:29:20.395Z,4.30
2022-08-16T03:32:37.942Z,3.97
2022-08-16T03:35:46.652Z,3.70
2022-08-16T03:45:13.053Z,3.33
2022-08-16T03:57:52.303Z,2.85
2022-08-16T04:01:03.427Z,3.20
2022-08-16T04:11:56.113Z,3.07
2022-08-16T04:21:29.336Z,2.70
2022-08-16T04:35:20.359Z,2.23
2022-08-16T04:45:15.789Z,2.17
2022-08-16T04:48:40.473Z,2.03
2022-08-16T04:52:02.661Z,2.00
2022-08-16T05:05:17.679Z,1.70
2022-08-16T05:08:29.353Z,1.80
2022-08-16T05:21:09.492Z,2.30
2022-08-16T05:24:32.009Z,2.27
2022-08-16T05:34:37.036Z,2.20
2022-08-16T05:38:32.493Z,2.20
2022-08-16T05:44:56.027Z,2.13
2022-08-16T05:55:16.948Z,1.30
2022-08-16T05:58:32.724Z,1.80
2022-08-16T06:09:15.066Z,0.83
2022-08-16T06:12:12.328Z,0.70
2022-08-16T06:15:19.579Z,0.70
2022-08-16T06:18:55.883Z,0.50
2022-08-16T06:22:38.800Z,0.37
2022-08-16T06:28:43.110Z,0.40
2022-08-16T06:32:43.162Z,0.30
2022-08-16T06:36:59.328Z,1.10
2022-08-16T06:41:02.062Z,1.30
2022-08-16T06:43:57.502Z,1.20
2022-08-16T06:46:55.632Z,0.97
2022-08-16T06:49:52.725Z,0.90
2022-08-16T06:52:58.271Z,0.85
2022-08-16T06:56:01.483Z,0.90
2022-08-16T06:59:00.769Z,0.70
2022-08-16T07:01:54.954Z,0.63
2022-08-16T07:09:21.730Z,0.70
2022-08-16T07:20:35.038Z,0.50
2022-08-16T07:24:06.148Z,0.80
2022-08-16T07:27:55.859Z,0.60
2022-08-16T07:31:20.811Z,0.60
2022-08-16T07:36:58.835Z,0.83
2022-08-16T07:39:33.727Z,0.60
2022-08-16T07:42:38.205Z,0.70
2022-08-16T07:45:36.373Z,1.00
2022-08-16T07:51:54.317Z,1.30
2022-08-16T07:55:01.352Z,1.07
2022-08-16T07:59:45.537Z,1.57
2022-08-16T08:02:19.812Z,1.40
2022-08-16T08:05:28.195Z,1.03
2022-08-16T08:12:10.131Z,1.80
2022-08-16T08:15:11.178Z,1.97
2022-08-16T08:18:28.890Z,2.20
2022-08-16T08:25:03.797Z,2.40
2022-08-16T08:28:23.899Z,2.67
2022-08-16T08:31:39.623Z,2.50
2022-08-16T08:37:56.685Z,2.47
2022-08-16T08:40:43.632Z,2.90
2022-08-16T08:43:43.731Z,2.90
2022-08-16T08:50:01.248Z,3.00
2022-08-16T08:52:48.215Z,2.97
2022-08-16T08:55:26.749Z,3.40
2022-08-16T08:58:22.798Z,2.77
2022-08-16T09:01:10.238Z,3.40
2022-08-16T09:04:03.254Z,3.17
2022-08-16T09:07:09.083Z,3.17
2022-08-16T09:10:22.749Z,3.00
2022-08-16T09:13:11.750Z,3.33
2022-08-16T09:16:00.243Z,3.13
2022-08-16T09:18:49.492Z,3.00
2022-08-16T09:21:38.725Z,2.73
2022-08-16T09:24:51.896Z,2.40
2022-08-16T09:27:56.516Z,2.80
2022-08-16T09:30:33.374Z,2.20
2022-08-16T09:33:21.361Z,2.77
2022-08-16T09:36:06.966Z,2.77
2022-08-16T09:38:52.587Z,2.57
2022-08-16T09:41:53.861Z,2.73
2022-08-16T09:45:10.847Z,2.83
2022-08-16T09:47:57.400Z,2.90
2022-08-16T09:51:01.760Z,2.70
2022-08-16T09:54:09.822Z,2.80
2022-08-16T09:57:19.068Z,3.67
2022-08-16T10:00:42.174Z,3.00
2022-08-16T10:03:24.417Z,3.10
2022-08-16T10:06:22.101Z,3.87
2022-08-16T10:09:25.515Z,3.67
2022-08-16T10:12:42.960Z,4.00
2022-08-16T10:15:33.572Z,4.03
2022-08-16T10:19:00.292Z,4.32
2022-08-16T10:21:29.094Z,4.33
2022-08-16T10:24:33.895Z,4.47
2022-08-16T10:27:46.083Z,5.10
2022-08-16T10:31:11.839Z,4.33
2022-08-16T10:34:30.758Z,5.67
2022-08-16T10:37:32.665Z,4.80
2022-08-16T10:40:29.097Z,5.07
2022-08-16T10:43:50.487Z,4.70
2022-08-16T10:49:32.984Z,4.60
2022-08-16T10:52:18.729Z,4.80
2022-08-16T10:58:23.664Z,5.03
2022-08-16T11:01:43.411Z,4.63
2022-08-16T11:07:53.777Z,4.93
2022-08-16T11:11:05.415Z,4.60
2022-08-16T11:14:11.050Z,5.60
2022-08-16T11:17:10.698Z,5.47
2022-08-16T11:20:41.990Z,5.93
2022-08-16T11:23:35.002Z,4.87
2022-08-16T11:26:23.632Z,4.80
2022-08-16T11:29:30.160Z,4.90
2022-08-16T11:32:31.196Z,5.30
2022-08-16T11:38:55.675Z,5.03
2022-08-16T11:42:07.661Z,4.67
2022-08-16T11:45:19.471Z,4.77
2022-08-16T11:48:11.105Z,4.90
2022-08-16T11:50:59.276Z,6.33
2022-08-16T11:56:57.046Z,5.30
2022-08-16T11:59:51.273Z,5.00
2022-08-16T12:02:32.595Z,4.67
2022-08-16T12:05:15.524Z,4.83
2022-08-16T12:08:05.267Z,4.63
2022-08-16T12:10:59.358Z,5.13
2022-08-16T12:16:48.806Z,3.90
2022-08-16T12:19:46.184Z,4.35
2022-08-16T12:22:27.914Z,3.30
2022-08-16T12:31:22.462Z,3.43
2022-08-16T12:34:02.914Z,3.57
2022-08-16T12:36:43.681Z,3.23
2022-08-16T12:39:22.450Z,3.60
2022-08-16T12:42:08.455Z,4.00
2022-08-16T12:44:55.980Z,4.13
2022-08-16T12:48:15.895Z,4.50
2022-08-16T12:50:58.736Z,4.63
2022-08-16T12:54:03.643Z,5.67
2022-08-16T12:56:47.414Z,5.63
2022-08-16T12:59:38.545Z,5.33
2022-08-16T13:02:33.772Z,5.23
2022-08-16T13:05:25.797Z,5.33
2022-08-16T13:10:52.564Z,4.80
2022-08-16T13:13:34.650Z,5.33
2022-08-16T13:16:35.356Z,5.47
2022-08-16T13:22:18.686Z,4.90
2022-08-16T13:25:07.375Z,5.67
2022-08-16T13:28:14.638Z,5.25
2022-08-16T13:31:08.063Z,5.73
2022-08-16T13:33:58.521Z,6.63
2022-08-16T13:36:48.655Z,6.90
2022-08-16T13:39:27.921Z,7.43
2022-08-16T13:42:29.958Z,6.93
2022-08-16T13:45:06.952Z,8.37
2022-08-16T13:47:45.330Z,6.68
2022-08-16T13:50:51.323Z,7.07
2022-08-16T13:53:42.269Z,6.90
2022-08-16T13:56:39.708Z,7.45
2022-08-16T13:59:21.312Z,7.53
2022-08-16T14:02:08.670Z,7.50
2022-08-16T14:04:59.580Z,7.13
2022-08-16T14:08:07.341Z,8.80
2022-08-16T14:10:49.048Z,7.57
2022-08-16T14:13:38.040Z,7.57
2022-08-16T14:16:33.602Z,7.53
2022-08-16T14:19:23.396Z,8.23
2022-08-16T14:22:31.436Z,6.67
2022-08-16T14:25:20.261Z,8.10
2022-08-16T14:28:10.617Z,8.97
2022-08-16T14:30:56.245Z,9.10
2022-08-16T14:33:41.961Z,8.80
2022-08-16T14:36:35.038Z,7.73
2022-08-16T14:39:32.269Z,8.70
2022-08-16T14:42:36.811Z,7.67
2022-08-16T14:48:30.781Z,6.27
2022-08-16T14:51:32.813Z,5.63
2022-08-16T14:54:11.222Z,4.77
2022-08-16T14:56:54.898Z,5.10
2022-08-16T14:59:46.323Z,4.37
2022-08-16T15:02:40.543Z,4.20
2022-08-16T15:05:26.514Z,3.80
2022-08-16T15:08:11.565Z,3.95
2022-08-16T15:10:53.057Z,4.43
2022-08-16T15:13:35.729Z,4.70
2022-08-16T15:16:18.217Z,5.43
2022-08-16T15:19:05.142Z,5.47
2022-08-16T15:21:55.514Z,5.33
2022-08-16T15:24:44.684Z,5.50
2022-08-16T15:27:35.853Z,5.88
2022-08-16T15:30:58.410Z,5.70
2022-08-16T15:33:58.356Z,6.10
2022-08-16T15:37:07.991Z,6.30
2022-08-16T15:39:56.108Z,6.20
2022-08-16T15:42:54.146Z,7.03
2022-08-16T15:45:59.683Z,6.87
2022-08-16T15:48:40.689Z,6.90
2022-08-16T15:51:22.648Z,7.40
2022-08-16T15:57:10.973Z,7.17
2022-08-16T16:00:05.012Z,7.30
2022-08-16T16:02:59.985Z,6.40
2022-08-16T16:08:31.475Z,6.67
2022-08-16T16:11:40.218Z,6.13
2022-08-16T16:14:35.051Z,5.20
2022-08-16T16:17:22.153Z,5.53
2022-08-16T16:20:17.129Z,5.13
2022-08-16T16:22:53.555Z,5.67
2022-08-16T16:25:39.393Z,5.17
2022-08-16T16:29:05.799Z,5.27
2022-08-16T16:31:28.202Z,5.83
2022-08-16T16:34:12.244Z,5.67
2022-08-16T16:36:57.095Z,5.60
2022-08-16T16:39:48.585Z,5.00
2022-08-16T16:42:49.051Z,5.50
2022-08-16T16:45:55.145Z,5.43
2022-08-16T16:48:49.925Z,5.50
2022-08-16T16:51:40.745Z,5.43
2022-08-16T17:00:29.703Z,6.43
2022-08-16T17:03:25.289Z,6.13
2022-08-16T17:06:09.407Z,7.20
2022-08-16T17:08:52.548Z,7.43
2022-08-16T17:11:37.391Z,5.90
2022-08-16T17:17:22.847Z,6.30
2022-08-16T17:20:29.077Z,7.27
2022-08-16T17:23:09.205Z,6.13
2022-08-16T17:28:58.256Z,6.27
2022-08-16T17:31:41.084Z,6.97
2022-08-16T17:37:22.122Z,7.30
2022-08-16T17:40:41.117Z,7.67
2022-08-16T17:43:21.426Z,7.93
2022-08-16T17:46:41.350Z,7.63
2022-08-16T17:49:26.170Z,7.23
2022-08-16T17:52:17.619Z,8.40
2022-08-16T17:55:09.150Z,8.43
2022-08-16T17:57:52.294Z,9.00
2022-08-16T18:00:34.112Z,8.73
2022-08-16T18:04:02.481Z,7.50
2022-08-16T18:09:25.562Z,7.40
2022-08-16T18:12:50.840Z,8.50
2022-08-16T18:15:34.199Z,8.33
2022-08-16T18:18:29.565Z,8.40
2022-08-16T18:21:36.209Z,8.47
2022-08-16T18:24:22.071Z,7.67
2022-08-16T18:27:05.338Z,8.70
2022-08-16T18:30:20.602Z,8.87
2022-08-16T18:33:15.559Z,8.47
2022-08-16T18:36:20.807Z,8.87
2022-08-16T18:39:06.874Z,8.17
2022-08-16T18:42:06.381Z,8.20
2022-08-16T18:44:53.981Z,8.17
2022-08-16T18:47:55.919Z,8.53
2022-08-16T18:53:32.392Z,8.07
2022-08-16T18:56:53.812Z,8.43
2022-08-16T18:59:51.880Z,8.87
2022-08-16T19:02:58.512Z,8.80
2022-08-16T19:05:42.230Z,7.90
2022-08-16T19:08:22.114Z,7.90
2022-08-16T19:11:16.580Z,7.93
2022-08-16T19:14:08.606Z,7.80
2022-08-16T19:16:57.494Z,7.63
2022-08-16T19:23:02.007Z,7.72
2022-08-16T19:25:53.110Z,6.93
2022-08-16T19:28:58.145Z,6.60
2022-08-16T19:31:54.366Z,6.90
2022-08-16T19:34:34.891Z,7.10
2022-08-16T19:37:10.472Z,6.67
2022-08-16T19:40:36.992Z,6.37
2022-08-16T19:46:04.164Z,6.37
2022-08-16T19:48:45.154Z,5.80
2022-08-16T19:51:23.179Z,6.95
2022-08-16T19:54:00.449Z,6.30
2022-08-16T19:57:09.740Z,6.10
2022-08-16T20:00:12.036Z,6.20
2022-08-16T20:03:05.464Z,7.37
2022-08-16T20:05:46.165Z,6.30
2022-08-16T20:08:31.976Z,5.97
2022-08-16T20:11:10.078Z,6.23
2022-08-16T20:13:55.708Z,6.57
2022-08-16T20:16:32.342Z,6.00
2022-08-16T20:19:20.228Z,6.13
2022-08-16T20:22:09.086Z,6.10
2022-08-16T20:24:45.925Z,5.60
2022-08-16T20:30:59.125Z,5.83
2022-08-16T20:33:38.437Z,5.57
2022-08-16T20:36:16.063Z,5.20
2022-08-16T20:39:00.781Z,5.43
2022-08-16T20:41:41.563Z,5.73
2022-08-16T20:44:36.846Z,5.83
2022-08-16T20:47:25.264Z,5.50
2022-08-16T20:50:08.323Z,5.30
2022-08-16T20:52:54.924Z,5.80
2022-08-16T20:55:43.717Z,4.90
2022-08-16T20:58:29.809Z,5.40
2022-08-16T21:01:16.375Z,5.50
2022-08-16T21:04:00.612Z,5.37
2022-08-16T21:07:03.054Z,5.03
2022-08-16T21:09:49.548Z,5.03
2022-08-16T21:12:37.848Z,5.07
2022-08-16T21:15:15.036Z,5.10
2022-08-16T21:17:57.547Z,6.00
2022-08-16T21:20:44.996Z,5.17
2022-08-16T21:26:55.589Z,6.07
2022-08-16T21:32:34.947Z,14.97
2022-08-16T21:35:21.392Z,5.13
2022-08-16T21:38:28.876Z,4.00
2022-08-16T21:41:27.241Z,4.00
2022-08-16T21:44:38.578Z,3.97
2022-08-16T21:47:27.376Z,3.97
2022-08-16T21:50:11.748Z,3.40
2022-08-16T21:52:50.162Z,3.30
2022-08-16T21:55:40.084Z,3.03
2022-08-16T21:58:53.187Z,3.63
2022-08-16T22:01:40.983Z,3.80
2022-08-16T22:04:39.121Z,3.20
2022-08-16T22:07:30.364Z,3.10
2022-08-16T22:11:06.477Z,2.80
2022-08-16T22:16:40.311Z,3.40
2022-08-16T22:19:17.829Z,2.40
2022-08-16T22:24:41.557Z,2.40
2022-08-16T22:27:31.115Z,2.17
2022-08-16T22:30:13.793Z,2.30
2022-08-16T22:33:10.673Z,2.07
2022-08-16T22:36:04.509Z,2.40
2022-08-16T22:38:57.447Z,2.50
2022-08-16T22:41:41.010Z,3.00
2022-08-16T22:44:32.577Z,2.40
2022-08-16T22:47:46.860Z,2.30
2022-08-16T22:50:38.176Z,2.10
2022-08-16T22:53:32.385Z,1.90
2022-08-16T22:56:21.721Z,2.40
2022-08-16T22:59:02.619Z,2.42
2022-08-16T23:01:41.697Z,2.13
2022-08-16T23:04:29.051Z,2.00
2022-08-16T23:07:21.221Z,2.47
2022-08-16T23:10:18.020Z,2.63
2022-08-16T23:13:05.262Z,2.20
2022-08-16T23:15:56.590Z,2.17
2022-08-16T23:18:40.947Z,2.30
2022-08-16T23:21:35.641Z,1.87
2022-08-16T23:24:56.000Z,2.10
2022-08-16T23:27:54.664Z,1.67
2022-08-16T23:30:38.949Z,2.63
2022-08-16T23:33:43.531Z,2.13
2022-08-16T23:36:24.349Z,2.17
2022-08-16T23:39:33.091Z,2.10
2022-08-16T23:42:12.121Z,2.27
2022-08-16T23:47:46.130Z,2.10
